This is the latest recevied weather packets stored in our database for station/object KC0FGX-1. If no packets are shown the sender has not sent any weather packets the latest 1 day(s).
| Time | Temp. | Humidity | Pressure | Rain* | Wind** | Luminosity | Snow |
|---|---|---|---|---|---|---|---|
| 1777993189 | 9.44° C | 78% | 1010.6 hPa | 0 mm | 0 m/s | - | - |
| 1777992188 | 9.44° C | 80% | 1010.8 hPa | 0 mm | 0 m/s | - | - |
| 1777991188 | 9.44° C | 73% | 1010.2 hPa | 0 mm | 0 m/s | - | - |
| 1777990188 | 9.44° C | 70% | 1009.4 hPa | 0 mm | 0.45 m/s, 59° | - | - |
| 1777989188 | 9.44° C | 69% | 1009.1 hPa | 0 mm | 0.45 m/s, 72° | - | - |
| 1777987188 | 9.44° C | 73% | 1008.3 hPa | 0 mm | 1.34 m/s, 64° | - | - |
| 1777986188 | 8.89° C | 74% | 1008.5 hPa | 0 mm | 0.89 m/s, 70° | - | - |
| 1777985188 | 8.89° C | 75% | 1008.4 hPa | 0 mm | 0.45 m/s, 64° | - | - |
| 1777984189 | 8.33° C | 83% | 1008.6 hPa | 0 mm | 0 m/s | - | - |
| 1777983188 | 7.78° C | 90% | 1008.6 hPa | 0 mm | 0 m/s | - | - |
| 1777982188 | 7.78° C | 91% | 1008.8 hPa | 0 mm | 0 m/s | - | - |
| 1777981188 | 7.78° C | 90% | 1009.1 hPa | 0 mm | 0 m/s | - | - |
| 1777980188 | 7.78° C | 89% | 1009.3 hPa | 0 mm | 0 m/s | - | - |
| 1777979188 | 7.78° C | 88% | 1009.4 hPa | 0.51 mm | 0 m/s | - | - |
| 1777978188 | 7.78° C | 85% | 1009.2 hPa | 1.27 mm | 0 m/s | - | - |
| 1777977188 | 8.33° C | 80% | 1008.9 hPa | 1.78 mm | 0 m/s | - | - |
| 1777976189 | 8.89° C | 73% | 1009 hPa | 1.27 mm | 0 m/s | - | - |
| 1777975188 | 10° C | 69% | 1009.1 hPa | 0.25 mm | 0 m/s | - | - |
| 1777974189 | 11.11° C | 54% | 1009.2 hPa | 0 mm | 0.45 m/s, 258° | - | - |
| 1777973188 | 11.11° C | 51% | 1007.7 hPa | 0 mm | 0.45 m/s, 60° | - | - |
| 1777972188 | 11.67° C | 52% | 1007.9 hPa | 0 mm | 0.45 m/s, 56° | - | - |
| 1777971189 | 11.67° C | 50% | 1007 hPa | 0 mm | 1.34 m/s, 7° | - | - |
| 1777970188 | 11.67° C | 50% | 1006.7 hPa | 0 mm | 1.34 m/s, 347° | - | - |
| 1777969189 | 12.22° C | 50% | 1006.5 hPa | 0 mm | 1.34 m/s, 340° | - | - |
| 1777968188 | 12.22° C | 50% | 1006.5 hPa | 0 mm | 1.34 m/s, 347° | - | - |
* Rain latest hour (hover to see other rain measurements)
** Current wind speed in m/s (hover to see current wind gust speed)